Startpagina
METAR-TAF:

METAR-TAF

Vliegvelden :

Flughafen Weeze

Weeze, Duitsland

breedte: 51-36-09N, lengte: 006-08-32E, hoogte: 32 m

Actueel weer

Dit bericht is 1 uur en het 59 minuten geleden gemaakt, om 21:50 UTC
Wind 3 kt uit het westnoordwesten
Temperatuur 14°C
Vochtigheid 72%
Druk 1025 hPa
Zicht 10 km of meer
geen wolken onder 1500 m en geen cumulonimbus

METAR: EDLV 122150Z 30003KT CAVOK 14/09 Q1025

Tijdstip: 01:49 (23:49 UTC)

Verwachting

Dit bericht is 6 uur en het 49 minuten geleden gemaakt, om 17:00 UTC
Verwachting geldig van 12 om 18 UTC tot 13 om 18 UTC
Wind 9 kt uit het noordwesten
Zicht 10 km of meer
geen wolken onder 1500 m en geen cumulonimbus
Wijzigt naar
van 12 om 18 UTC tot 12 om 21 UTC
Wind 2 kt uit variabele richting
Wijzigt naar
van 13 om 07 UTC tot 13 om 10 UTC
Wind 5 kt uit het noorden

TAF: EDLV 121700Z 1218/1318 31009KT CAVOK BECMG 1218/1221 VRB02KT BECMG 1307/1310 35005KT

Waarnemingen en weersverwachtingen van meer dan 4000 vliegvelden (METAR en TAF).

De beschikbare stations zijn de gele en rode punten op de kaart.

Ga met uw muis naar het station om de naam te zien.

Klik dan om waarnemingen en weersverwachtingen te zien.

kaart wijzigen: klik op de groene knoppen met een zwart kruis om in te zoomen, op de groene knop met een streepje om uit te zoomen of op de groene pijlen voor aangrenzende kaarten.


METAR-TAF: